sensor_id;sensor_type;location;lat;lon;timestamp;pressure;altitude;pressure_sealevel;temperature;humidity
35892;BME280;21993;42.672;23.296;2023-08-07T00:00:14;94170.06;;;21.56;56.00
35892;BME280;21993;42.672;23.296;2023-08-07T00:02:40;94159.38;;;21.56;55.86
35892;BME280;21993;42.672;23.296;2023-08-07T00:05:06;94158.94;;;21.59;55.79
35892;BME280;21993;42.672;23.296;2023-08-07T00:07:31;94166.94;;;21.59;55.52
35892;BME280;21993;42.672;23.296;2023-08-07T00:09:57;94158.94;;;21.59;55.50
35892;BME280;21993;42.672;23.296;2023-08-07T00:12:24;94169.00;;;21.57;55.69
35892;BME280;21993;42.672;23.296;2023-08-07T00:14:52;94162.25;;;21.54;55.98
35892;BME280;21993;42.672;23.296;2023-08-07T00:17:18;94161.63;;;21.52;56.11
35892;BME280;21993;42.672;23.296;2023-08-07T00:19:44;94164.53;;;21.51;55.53
35892;BME280;21993;42.672;23.296;2023-08-07T00:22:09;94156.75;;;21.49;55.57
35892;BME280;21993;42.672;23.296;2023-08-07T00:24:34;94162.31;;;21.48;56.11
35892;BME280;21993;42.672;23.296;2023-08-07T00:27:00;94165.59;;;21.43;55.85
35892;BME280;21993;42.672;23.296;2023-08-07T00:29:26;94169.09;;;21.44;55.78
35892;BME280;21993;42.672;23.296;2023-08-07T00:31:51;94164.41;;;21.39;56.07
35892;BME280;21993;42.672;23.296;2023-08-07T00:34:17;94167.53;;;21.36;55.96
35892;BME280;21993;42.672;23.296;2023-08-07T00:36:42;94178.41;;;21.34;56.92
35892;BME280;21993;42.672;23.296;2023-08-07T00:39:08;94179.66;;;21.32;56.92
35892;BME280;21993;42.672;23.296;2023-08-07T00:41:33;94173.94;;;21.28;57.25
35892;BME280;21993;42.672;23.296;2023-08-07T00:43:59;94176.59;;;21.22;57.12
35892;BME280;21993;42.672;23.296;2023-08-07T00:46:26;94179.31;;;21.15;57.41
35892;BME280;21993;42.672;23.296;2023-08-07T00:48:52;94173.19;;;21.08;57.63
35892;BME280;21993;42.672;23.296;2023-08-07T00:51:19;94180.56;;;21.13;57.48
35892;BME280;21993;42.672;23.296;2023-08-07T00:53:45;94182.78;;;21.16;57.48
35892;BME280;21993;42.672;23.296;2023-08-07T00:56:12;94196.56;;;21.13;57.57
35892;BME280;21993;42.672;23.296;2023-08-07T00:58:38;94195.97;;;21.11;57.60
35892;BME280;21993;42.672;23.296;2023-08-07T01:01:05;94202.94;;;21.12;57.62
35892;BME280;21993;42.672;23.296;2023-08-07T01:03:30;94201.72;;;21.07;57.98
35892;BME280;21993;42.672;23.296;2023-08-07T01:05:56;94202.75;;;21.06;58.26
35892;BME280;21993;42.672;23.296;2023-08-07T01:08:25;94206.25;;;21.00;58.07
35892;BME280;21993;42.672;23.296;2023-08-07T01:13:45;94208.94;;;21.00;58.60
35892;BME280;21993;42.672;23.296;2023-08-07T01:16:18;94213.06;;;20.96;58.48
35892;BME280;21993;42.672;23.296;2023-08-07T01:18:47;94217.19;;;20.92;58.77
35892;BME280;21993;42.672;23.296;2023-08-07T01:21:18;94221.47;;;20.93;58.78
35892;BME280;21993;42.672;23.296;2023-08-07T01:23:47;94225.63;;;20.83;59.16
35892;BME280;21993;42.672;23.296;2023-08-07T01:26:15;94231.78;;;20.83;59.15
35892;BME280;21993;42.672;23.296;2023-08-07T01:29:22;94218.66;;;20.82;59.16
35892;BME280;21993;42.672;23.296;2023-08-07T01:31:38;94223.19;;;20.74;59.44
35892;BME280;21993;42.672;23.296;2023-08-07T01:34:06;94219.53;;;20.69;59.60
35892;BME280;21993;42.672;23.296;2023-08-07T01:36:34;94225.66;;;20.76;59.26
35892;BME280;21993;42.672;23.296;2023-08-07T01:39:00;94219.09;;;20.72;59.82
35892;BME280;21993;42.672;23.296;2023-08-07T01:41:27;94219.31;;;20.70;59.62
35892;BME280;21993;42.672;23.296;2023-08-07T01:43:54;94222.38;;;20.67;59.63
35892;BME280;21993;42.672;23.296;2023-08-07T01:46:20;94211.53;;;20.62;60.01
35892;BME280;21993;42.672;23.296;2023-08-07T01:48:45;94218.94;;;20.60;60.25
35892;BME280;21993;42.672;23.296;2023-08-07T01:51:11;94216.28;;;20.60;60.17
35892;BME280;21993;42.672;23.296;2023-08-07T01:53:36;94219.16;;;20.52;60.49
35892;BME280;21993;42.672;23.296;2023-08-07T01:56:02;94212.81;;;20.53;60.33
35892;BME280;21993;42.672;23.296;2023-08-07T01:58:27;94219.56;;;20.49;60.25
35892;BME280;21993;42.672;23.296;2023-08-07T02:00:53;94215.47;;;20.46;60.40
35892;BME280;21993;42.672;23.296;2023-08-07T02:03:19;94214.66;;;20.46;60.01
35892;BME280;21993;42.672;23.296;2023-08-07T02:05:45;94225.94;;;20.48;60.30
35892;BME280;21993;42.672;23.296;2023-08-07T02:08:12;94221.19;;;20.50;59.92
35892;BME280;21993;42.672;23.296;2023-08-07T02:10:37;94222.06;;;20.44;59.86
35892;BME280;21993;42.672;23.296;2023-08-07T02:13:03;94226.97;;;20.47;60.02
35892;BME280;21993;42.672;23.296;2023-08-07T02:15:28;94232.06;;;20.42;60.07
35892;BME280;21993;42.672;23.296;2023-08-07T02:17:53;94231.88;;;20.37;59.96
35892;BME280;21993;42.672;23.296;2023-08-07T02:20:19;94233.72;;;20.36;60.24
35892;BME280;21993;42.672;23.296;2023-08-07T02:22:44;94242.31;;;20.38;60.03
35892;BME280;21993;42.672;23.296;2023-08-07T02:25:10;94238.03;;;20.37;60.21
35892;BME280;21993;42.672;23.296;2023-08-07T02:27:35;94252.38;;;20.30;60.25
35892;BME280;21993;42.672;23.296;2023-08-07T02:30:00;94250.53;;;20.30;59.95
35892;BME280;21993;42.672;23.296;2023-08-07T02:32:28;94251.56;;;20.22;60.18
35892;BME280;21993;42.672;23.296;2023-08-07T02:34:54;94253.63;;;20.27;60.23
35892;BME280;21993;42.672;23.296;2023-08-07T02:37:19;94253.19;;;20.23;60.62
35892;BME280;21993;42.672;23.296;2023-08-07T02:39:46;94251.34;;;20.24;60.61
35892;BME280;21993;42.672;23.296;2023-08-07T02:42:12;94251.13;;;20.25;59.95
35892;BME280;21993;42.672;23.296;2023-08-07T02:44:37;94246.63;;;20.26;60.21
35892;BME280;21993;42.672;23.296;2023-08-07T02:47:03;94249.28;;;20.26;60.13
35892;BME280;21993;42.672;23.296;2023-08-07T02:49:28;94258.13;;;20.27;60.20
35892;BME280;21993;42.672;23.296;2023-08-07T02:51:54;94261.81;;;20.25;60.06
35892;BME280;21993;42.672;23.296;2023-08-07T02:54:19;94258.75;;;20.29;59.87
35892;BME280;21993;42.672;23.296;2023-08-07T02:56:45;94259.97;;;20.26;60.12
35892;BME280;21993;42.672;23.296;2023-08-07T02:59:10;94267.34;;;20.24;60.23
35892;BME280;21993;42.672;23.296;2023-08-07T03:01:35;94261.19;;;20.17;60.29
35892;BME280;21993;42.672;23.296;2023-08-07T03:04:01;94272.50;;;20.19;60.17
35892;BME280;21993;42.672;23.296;2023-08-07T03:06:26;94271.47;;;20.13;60.54
35892;BME280;21993;42.672;23.296;2023-08-07T03:08:52;94276.56;;;20.08;60.77
35892;BME280;21993;42.672;23.296;2023-08-07T03:11:17;94272.88;;;20.09;60.17
35892;BME280;21993;42.672;23.296;2023-08-07T03:13:43;94279.25;;;20.02;60.60
35892;BME280;21993;42.672;23.296;2023-08-07T03:16:09;94275.13;;;19.99;60.95
35892;BME280;21993;42.672;23.296;2023-08-07T03:18:35;94286.63;;;19.93;61.15
35892;BME280;21993;42.672;23.296;2023-08-07T03:21:01;94280.25;;;19.87;61.35
35892;BME280;21993;42.672;23.296;2023-08-07T03:23:27;94284.31;;;19.83;62.11
35892;BME280;21993;42.672;23.296;2023-08-07T03:26:07;94292.16;;;19.85;62.53
35892;BME280;21993;42.672;23.296;2023-08-07T03:28:34;94290.50;;;19.90;62.17
35892;BME280;21993;42.672;23.296;2023-08-07T03:30:59;94285.16;;;19.90;62.29
35892;BME280;21993;42.672;23.296;2023-08-07T03:33:25;94292.13;;;19.91;61.78
35892;BME280;21993;42.672;23.296;2023-08-07T03:35:50;94292.53;;;19.88;62.27
35892;BME280;21993;42.672;23.296;2023-08-07T03:38:16;94305.66;;;19.90;62.41
35892;BME280;21993;42.672;23.296;2023-08-07T03:40:41;94312.84;;;19.89;62.46
35892;BME280;21993;42.672;23.296;2023-08-07T03:43:07;94319.81;;;19.90;62.10
35892;BME280;21993;42.672;23.296;2023-08-07T03:45:32;94321.03;;;19.88;62.32
35892;BME280;21993;42.672;23.296;2023-08-07T03:47:58;94319.59;;;19.79;62.42
35892;BME280;21993;42.672;23.296;2023-08-07T03:50:23;94326.75;;;19.78;62.43
35892;BME280;21993;42.672;23.296;2023-08-07T03:52:49;94308.72;;;19.80;62.37
35892;BME280;21993;42.672;23.296;2023-08-07T03:55:14;94321.84;;;19.82;62.09
35892;BME280;21993;42.672;23.296;2023-08-07T03:57:39;94325.94;;;19.91;61.45
35892;BME280;21993;42.672;23.296;2023-08-07T04:00:05;94331.47;;;19.89;61.90
35892;BME280;21993;42.672;23.296;2023-08-07T04:02:31;94323.69;;;19.81;61.77
35892;BME280;21993;42.672;23.296;2023-08-07T04:04:56;94330.06;;;19.87;61.56
35892;BME280;21993;42.672;23.296;2023-08-07T04:07:22;94336.00;;;19.89;61.03
35892;BME280;21993;42.672;23.296;2023-08-07T04:09:47;94334.16;;;19.89;61.36
35892;BME280;21993;42.672;23.296;2023-08-07T04:12:13;94344.38;;;19.92;61.09
35892;BME280;21993;42.672;23.296;2023-08-07T04:14:38;94339.06;;;19.86;61.35
35892;BME280;21993;42.672;23.296;2023-08-07T04:17:04;94345.22;;;19.86;61.04
35892;BME280;21993;42.672;23.296;2023-08-07T04:19:29;94340.09;;;19.91;61.08
35892;BME280;21993;42.672;23.296;2023-08-07T04:21:55;94342.56;;;19.93;61.07
35892;BME280;21993;42.672;23.296;2023-08-07T04:24:20;94350.75;;;19.91;61.03
35892;BME280;21993;42.672;23.296;2023-08-07T04:26:45;94351.78;;;19.90;61.48
35892;BME280;21993;42.672;23.296;2023-08-07T04:29:11;94352.00;;;20.09;60.84
35892;BME280;21993;42.672;23.296;2023-08-07T04:31:36;94354.06;;;20.07;60.41
35892;BME280;21993;42.672;23.296;2023-08-07T04:34:02;94350.59;;;20.13;60.52
35892;BME280;21993;42.672;23.296;2023-08-07T04:36:27;94363.91;;;20.06;60.34
35892;BME280;21993;42.672;23.296;2023-08-07T04:38:53;94364.53;;;20.15;59.83
35892;BME280;21993;42.672;23.296;2023-08-07T04:41:20;94357.56;;;20.20;59.88
35892;BME280;21993;42.672;23.296;2023-08-07T04:43:46;94360.00;;;20.15;60.26
35892;BME280;21993;42.672;23.296;2023-08-07T04:46:13;94366.78;;;20.11;60.46
35892;BME280;21993;42.672;23.296;2023-08-07T04:48:38;94367.81;;;20.17;60.31
35892;BME280;21993;42.672;23.296;2023-08-07T04:51:03;94371.31;;;20.24;60.34
35892;BME280;21993;42.672;23.296;2023-08-07T04:53:29;94365.97;;;20.17;60.16
35892;BME280;21993;42.672;23.296;2023-08-07T04:55:55;94357.78;;;20.12;60.49
35892;BME280;21993;42.672;23.296;2023-08-07T04:58:20;94359.81;;;20.17;60.71
35892;BME280;21993;42.672;23.296;2023-08-07T05:00:45;94353.88;;;20.21;60.35
35892;BME280;21993;42.672;23.296;2023-08-07T05:03:11;94360.88;;;20.29;60.13
35892;BME280;21993;42.672;23.296;2023-08-07T05:05:36;94362.91;;;20.34;60.15
35892;BME280;21993;42.672;23.296;2023-08-07T05:08:02;94356.75;;;20.33;59.98
35892;BME280;21993;42.672;23.296;2023-08-07T05:10:27;94353.47;;;20.31;60.43
35892;BME280;21993;42.672;23.296;2023-08-07T05:12:53;94347.53;;;20.29;60.80
35892;BME280;21993;42.672;23.296;2023-08-07T05:15:24;94351.91;;;20.43;60.24
35892;BME280;21993;42.672;23.296;2023-08-07T05:17:50;94343.88;;;20.57;59.52
35892;BME280;21993;42.672;23.296;2023-08-07T05:20:16;94341.84;;;20.52;59.71
35892;BME280;21993;42.672;23.296;2023-08-07T05:22:42;94347.16;;;20.59;59.44
35892;BME280;21993;42.672;23.296;2023-08-07T05:25:08;94342.03;;;20.57;59.56
35892;BME280;21993;42.672;23.296;2023-08-07T05:27:35;94348.19;;;20.64;59.26
35892;BME280;21993;42.672;23.296;2023-08-07T05:30:00;94352.28;;;20.73;59.06
35892;BME280;21993;42.672;23.296;2023-08-07T05:32:26;94355.56;;;20.82;58.92
35892;BME280;21993;42.672;23.296;2023-08-07T05:34:51;94353.28;;;20.92;58.31
35892;BME280;21993;42.672;23.296;2023-08-07T05:37:16;94366.81;;;20.91;58.46
35892;BME280;21993;42.672;23.296;2023-08-07T05:39:42;94353.06;;;21.00;57.95
35892;BME280;21993;42.672;23.296;2023-08-07T05:42:07;94350.78;;;21.11;57.65
35892;BME280;21993;42.672;23.296;2023-08-07T05:44:34;94358.59;;;21.05;58.07
35892;BME280;21993;42.672;23.296;2023-08-07T05:47:00;94355.69;;;21.20;57.77
35892;BME280;21993;42.672;23.296;2023-08-07T05:49:25;94362.88;;;21.20;57.87
35892;BME280;21993;42.672;23.296;2023-08-07T05:51:51;94359.56;;;21.38;56.87
35892;BME280;21993;42.672;23.296;2023-08-07T05:54:16;94345.78;;;21.41;57.10
35892;BME280;21993;42.672;23.296;2023-08-07T05:56:42;94347.84;;;21.45;56.80
35892;BME280;21993;42.672;23.296;2023-08-07T05:59:08;94339.38;;;21.55;56.62
35892;BME280;21993;42.672;23.296;2023-08-07T06:01:33;94351.63;;;21.69;56.29
35892;BME280;21993;42.672;23.296;2023-08-07T06:03:58;94351.00;;;21.74;55.81
35892;BME280;21993;42.672;23.296;2023-08-07T06:06:24;94343.75;;;21.87;55.66
35892;BME280;21993;42.672;23.296;2023-08-07T06:08:51;94351.53;;;21.89;55.96
35892;BME280;21993;42.672;23.296;2023-08-07T06:11:16;94353.66;;;21.80;56.23
35892;BME280;21993;42.672;23.296;2023-08-07T06:13:42;94349.44;;;21.98;55.94
35892;BME280;21993;42.672;23.296;2023-08-07T06:16:08;94345.47;;;22.07;55.06
35892;BME280;21993;42.672;23.296;2023-08-07T06:18:33;94340.41;;;21.92;56.12
35892;BME280;21993;42.672;23.296;2023-08-07T06:20:59;94342.84;;;22.00;55.82
35892;BME280;21993;42.672;23.296;2023-08-07T06:23:25;94338.69;;;22.11;55.88
35892;BME280;21993;42.672;23.296;2023-08-07T06:25:50;94337.59;;;22.18;56.60
35892;BME280;21993;42.672;23.296;2023-08-07T06:28:15;94340.56;;;22.35;55.44
35892;BME280;21993;42.672;23.296;2023-08-07T06:30:41;94338.03;;;22.47;54.92
35892;BME280;21993;42.672;23.296;2023-08-07T06:33:06;94325.19;;;22.56;55.58
35892;BME280;21993;42.672;23.296;2023-08-07T06:35:37;94327.91;;;22.74;54.20
35892;BME280;21993;42.672;23.296;2023-08-07T06:38:03;94326.94;;;22.93;52.50
35892;BME280;21993;42.672;23.296;2023-08-07T06:40:29;94331.63;;;22.98;51.45
35892;BME280;21993;42.672;23.296;2023-08-07T06:42:54;94331.06;;;22.96;52.53
35892;BME280;21993;42.672;23.296;2023-08-07T06:45:20;94334.91;;;23.00;51.46
35892;BME280;21993;42.672;23.296;2023-08-07T06:47:45;94338.84;;;22.97;49.76
35892;BME280;21993;42.672;23.296;2023-08-07T06:50:13;94334.81;;;22.88;51.13
35892;BME280;21993;42.672;23.296;2023-08-07T06:52:38;94339.66;;;22.98;51.59
35892;BME280;21993;42.672;23.296;2023-08-07T06:55:04;94340.03;;;23.20;49.09
35892;BME280;21993;42.672;23.296;2023-08-07T06:57:30;94341.25;;;23.24;47.96
35892;BME280;21993;42.672;23.296;2023-08-07T06:59:55;94331.59;;;23.23;48.61
35892;BME280;21993;42.672;23.296;2023-08-07T07:02:20;94338.63;;;23.36;47.69
35892;BME280;21993;42.672;23.296;2023-08-07T07:04:46;94335.59;;;23.32;48.06
35892;BME280;21993;42.672;23.296;2023-08-07T07:07:11;94338.72;;;23.47;47.76
35892;BME280;21993;42.672;23.296;2023-08-07T07:09:37;94343.31;;;23.58;47.51
35892;BME280;21993;42.672;23.296;2023-08-07T07:12:02;94338.34;;;23.62;47.59
35892;BME280;21993;42.672;23.296;2023-08-07T07:14:28;94324.88;;;23.69;47.40
35892;BME280;21993;42.672;23.296;2023-08-07T07:16:54;94327.63;;;23.80;46.75
35892;BME280;21993;42.672;23.296;2023-08-07T07:19:19;94327.44;;;23.94;46.27
35892;BME280;21993;42.672;23.296;2023-08-07T07:21:45;94327.44;;;23.94;46.29
35892;BME280;21993;42.672;23.296;2023-08-07T07:24:10;94330.91;;;23.82;46.90
35892;BME280;21993;42.672;23.296;2023-08-07T07:26:36;94333.59;;;23.82;47.08
35892;BME280;21993;42.672;23.296;2023-08-07T07:29:01;94326.38;;;23.95;45.89
35892;BME280;21993;42.672;23.296;2023-08-07T07:31:27;94325.56;;;23.94;45.87
35892;BME280;21993;42.672;23.296;2023-08-07T07:33:52;94325.13;;;23.97;45.67
35892;BME280;21993;42.672;23.296;2023-08-07T07:36:19;94317.53;;;23.94;46.47
35892;BME280;21993;42.672;23.296;2023-08-07T07:38:45;94322.47;;;23.97;46.55
35892;BME280;21993;42.672;23.296;2023-08-07T07:41:13;94327.00;;;23.97;46.86
35892;BME280;21993;42.672;23.296;2023-08-07T07:43:38;94323.72;;;23.95;46.48
35892;BME280;21993;42.672;23.296;2023-08-07T07:46:04;94316.63;;;24.00;46.50
35892;BME280;21993;42.672;23.296;2023-08-07T07:48:30;94314.59;;;24.14;45.56
35892;BME280;21993;42.672;23.296;2023-08-07T07:51:04;94317.03;;;24.15;45.75
35892;BME280;21993;42.672;23.296;2023-08-07T07:53:30;94321.94;;;24.19;45.87
35892;BME280;21993;42.672;23.296;2023-08-07T07:55:56;94320.19;;;24.24;45.74
35892;BME280;21993;42.672;23.296;2023-08-07T07:58:22;94315.69;;;24.36;45.68
35892;BME280;21993;42.672;23.296;2023-08-07T08:00:47;94310.94;;;24.38;46.59
35892;BME280;21993;42.672;23.296;2023-08-07T08:03:13;94319.69;;;24.46;46.67
35892;BME280;21993;42.672;23.296;2023-08-07T08:05:39;94316.09;;;24.52;45.65
35892;BME280;21993;42.672;23.296;2023-08-07T08:08:05;94320.44;;;24.64;45.40
35892;BME280;21993;42.672;23.296;2023-08-07T08:10:32;94311.31;;;24.65;45.35
35892;BME280;21993;42.672;23.296;2023-08-07T08:12:57;94315.28;;;24.86;44.31
35892;BME280;21993;42.672;23.296;2023-08-07T08:15:23;94319.13;;;24.79;45.32
35892;BME280;21993;42.672;23.296;2023-08-07T08:17:49;94312.00;;;24.96;43.58
35892;BME280;21993;42.672;23.296;2023-08-07T08:20:14;94308.75;;;24.82;44.87
35892;BME280;21993;42.672;23.296;2023-08-07T08:22:44;94309.91;;;24.86;44.48
35892;BME280;21993;42.672;23.296;2023-08-07T08:25:10;94306.88;;;24.94;44.44
35892;BME280;21993;42.672;23.296;2023-08-07T08:27:37;94299.69;;;25.07;43.95
35892;BME280;21993;42.672;23.296;2023-08-07T08:30:03;94304.44;;;25.05;44.14
35892;BME280;21993;42.672;23.296;2023-08-07T08:32:29;94304.56;;;25.10;44.47
35892;BME280;21993;42.672;23.296;2023-08-07T08:34:55;94303.28;;;25.12;44.55
35892;BME280;21993;42.672;23.296;2023-08-07T08:37:21;94298.97;;;25.23;44.26
35892;BME280;21993;42.672;23.296;2023-08-07T08:39:46;94292.63;;;25.41;43.67
35892;BME280;21993;42.672;23.296;2023-08-07T08:42:12;94288.63;;;25.43;43.66
35892;BME280;21993;42.672;23.296;2023-08-07T08:44:55;94290.13;;;25.51;43.29
35892;BME280;21993;42.672;23.296;2023-08-07T08:47:22;94290.94;;;25.51;43.15
35892;BME280;21993;42.672;23.296;2023-08-07T08:50:01;94285.75;;;25.62;43.00
35892;BME280;21993;42.672;23.296;2023-08-07T08:52:28;94296.88;;;25.53;42.98
35892;BME280;21993;42.672;23.296;2023-08-07T08:54:57;94295.75;;;25.49;43.82
35892;BME280;21993;42.672;23.296;2023-08-07T08:57:24;94287.25;;;25.69;42.74
35892;BME280;21993;42.672;23.296;2023-08-07T08:59:50;94289.09;;;25.80;43.02
35892;BME280;21993;42.672;23.296;2023-08-07T09:02:16;94280.28;;;25.97;42.26
35892;BME280;21993;42.672;23.296;2023-08-07T09:04:43;94274.91;;;26.14;40.50
35892;BME280;21993;42.672;23.296;2023-08-07T09:07:09;94277.50;;;25.92;42.27
35892;BME280;21993;42.672;23.296;2023-08-07T09:09:35;94277.78;;;26.07;41.67
35892;BME280;21993;42.672;23.296;2023-08-07T09:12:02;94277.63;;;26.14;41.53
35892;BME280;21993;42.672;23.296;2023-08-07T09:14:30;94282.09;;;26.08;42.27
35892;BME280;21993;42.672;23.296;2023-08-07T09:17:00;94286.84;;;26.18;41.70
35892;BME280;21993;42.672;23.296;2023-08-07T09:19:26;94281.06;;;26.26;41.21
35892;BME280;21993;42.672;23.296;2023-08-07T09:21:52;94270.63;;;26.29;41.16
35892;BME280;21993;42.672;23.296;2023-08-07T09:24:17;94265.34;;;26.34;41.04
35892;BME280;21993;42.672;23.296;2023-08-07T09:26:44;94263.47;;;26.35;41.24
35892;BME280;21993;42.672;23.296;2023-08-07T09:29:10;94255.16;;;26.53;40.72
35892;BME280;21993;42.672;23.296;2023-08-07T09:31:43;94258.91;;;26.52;41.36
35892;BME280;21993;42.672;23.296;2023-08-07T09:34:10;94254.44;;;26.58;40.31
35892;BME280;21993;42.672;23.296;2023-08-07T09:36:37;94253.84;;;26.56;41.37
35892;BME280;21993;42.672;23.296;2023-08-07T09:39:03;94262.44;;;26.53;41.56
35892;BME280;21993;42.672;23.296;2023-08-07T09:41:30;94257.13;;;26.58;41.25
35892;BME280;21993;42.672;23.296;2023-08-07T09:43:56;94252.97;;;26.67;40.92
35892;BME280;21993;42.672;23.296;2023-08-07T09:46:22;94250.56;;;26.71;41.26
35892;BME280;21993;42.672;23.296;2023-08-07T09:48:48;94254.34;;;26.70;40.66
35892;BME280;21993;42.672;23.296;2023-08-07T09:51:13;94261.75;;;26.79;40.68
35892;BME280;21993;42.672;23.296;2023-08-07T09:53:39;94254.72;;;26.78;40.76
35892;BME280;21993;42.672;23.296;2023-08-07T09:56:06;94248.84;;;26.81;40.34
35892;BME280;21993;42.672;23.296;2023-08-07T09:58:31;94246.78;;;26.88;40.08
35892;BME280;21993;42.672;23.296;2023-08-07T10:01:08;94242.38;;;26.99;40.07
35892;BME280;21993;42.672;23.296;2023-08-07T10:03:35;94246.09;;;27.15;39.73
35892;BME280;21993;42.672;23.296;2023-08-07T10:06:04;94253.97;;;27.16;39.44
35892;BME280;21993;42.672;23.296;2023-08-07T10:08:30;94255.47;;;27.29;39.13
35892;BME280;21993;42.672;23.296;2023-08-07T10:10:58;94257.34;;;27.29;38.93
35892;BME280;21993;42.672;23.296;2023-08-07T10:13:23;94248.31;;;27.18;39.46
35892;BME280;21993;42.672;23.296;2023-08-07T10:15:50;94249.34;;;27.34;39.06
35892;BME280;21993;42.672;23.296;2023-08-07T10:18:15;94254.13;;;27.32;39.18
35892;BME280;21993;42.672;23.296;2023-08-07T10:20:41;94251.59;;;27.42;38.50
35892;BME280;21993;42.672;23.296;2023-08-07T10:23:10;94242.81;;;27.52;37.93
35892;BME280;21993;42.672;23.296;2023-08-07T10:25:39;94241.03;;;27.40;38.72
35892;BME280;21993;42.672;23.296;2023-08-07T10:28:09;94252.41;;;27.42;38.70
35892;BME280;21993;42.672;23.296;2023-08-07T10:30:37;94258.09;;;27.46;39.06
35892;BME280;21993;42.672;23.296;2023-08-07T10:33:04;94253.53;;;27.46;39.43
35892;BME280;21993;42.672;23.296;2023-08-07T10:35:33;94246.94;;;27.59;39.05
35892;BME280;21993;42.672;23.296;2023-08-07T10:38:07;94243.22;;;27.65;38.42
35892;BME280;21993;42.672;23.296;2023-08-07T10:40:33;94237.81;;;27.65;38.47
35892;BME280;21993;42.672;23.296;2023-08-07T10:45:25;94234.31;;;27.87;38.48
35892;BME280;21993;42.672;23.296;2023-08-07T10:48:01;94238.84;;;27.81;38.07
35892;BME280;21993;42.672;23.296;2023-08-07T10:50:29;94229.38;;;27.79;38.27
35892;BME280;21993;42.672;23.296;2023-08-07T10:52:55;94233.53;;;27.91;37.61
35892;BME280;21993;42.672;23.296;2023-08-07T10:55:20;94232.97;;;27.89;38.16
35892;BME280;21993;42.672;23.296;2023-08-07T10:57:47;94223.13;;;28.00;38.29
35892;BME280;21993;42.672;23.296;2023-08-07T11:00:12;94220.00;;;27.86;38.69
35892;BME280;21993;42.672;23.296;2023-08-07T11:02:41;94215.50;;;27.92;38.91
35892;BME280;21993;42.672;23.296;2023-08-07T11:05:07;94213.13;;;28.00;38.92
35892;BME280;21993;42.672;23.296;2023-08-07T11:07:33;94220.19;;;28.07;38.29
35892;BME280;21993;42.672;23.296;2023-08-07T11:09:59;94219.22;;;28.18;37.93
35892;BME280;21993;42.672;23.296;2023-08-07T11:12:28;94206.28;;;28.20;37.39
35892;BME280;21993;42.672;23.296;2023-08-07T11:14:54;94195.19;;;28.48;37.00
35892;BME280;21993;42.672;23.296;2023-08-07T11:17:29;94196.94;;;28.32;37.99
35892;BME280;21993;42.672;23.296;2023-08-07T11:19:55;94196.34;;;28.25;37.56
35892;BME280;21993;42.672;23.296;2023-08-07T11:22:21;94180.66;;;28.22;37.90
35892;BME280;21993;42.672;23.296;2023-08-07T11:24:47;94192.63;;;28.31;38.08
35892;BME280;21993;42.672;23.296;2023-08-07T11:27:12;94186.16;;;28.32;38.03
35892;BME280;21993;42.672;23.296;2023-08-07T11:29:38;94183.06;;;28.51;37.04
35892;BME280;21993;42.672;23.296;2023-08-07T11:32:04;94182.81;;;28.52;37.08
35892;BME280;21993;42.672;23.296;2023-08-07T11:34:30;94182.00;;;28.52;37.30
35892;BME280;21993;42.672;23.296;2023-08-07T11:36:56;94180.59;;;28.49;37.56
35892;BME280;21993;42.672;23.296;2023-08-07T11:39:23;94173.91;;;28.57;37.56
35892;BME280;21993;42.672;23.296;2023-08-07T11:41:52;94171.50;;;28.60;37.96
35892;BME280;21993;42.672;23.296;2023-08-07T11:44:18;94173.94;;;28.62;37.39
35892;BME280;21993;42.672;23.296;2023-08-07T11:46:43;94173.47;;;28.75;37.07
35892;BME280;21993;42.672;23.296;2023-08-07T11:49:09;94179.63;;;28.66;37.63
35892;BME280;21993;42.672;23.296;2023-08-07T11:51:35;94177.00;;;28.76;36.83
35892;BME280;21993;42.672;23.296;2023-08-07T11:54:01;94183.53;;;28.85;37.24
35892;BME280;21993;42.672;23.296;2023-08-07T11:56:28;94180.00;;;28.79;38.05
35892;BME280;21993;42.672;23.296;2023-08-07T11:58:54;94167.41;;;29.00;36.90
35892;BME280;21993;42.672;23.296;2023-08-07T12:01:23;94168.31;;;29.16;36.18
35892;BME280;21993;42.672;23.296;2023-08-07T12:03:53;94186.72;;;29.19;36.44
35892;BME280;21993;42.672;23.296;2023-08-07T12:06:20;94173.16;;;29.14;36.73
35892;BME280;21993;42.672;23.296;2023-08-07T12:08:49;94165.59;;;29.11;36.92
35892;BME280;21993;42.672;23.296;2023-08-07T12:11:15;94172.66;;;29.22;36.71
35892;BME280;21993;42.672;23.296;2023-08-07T12:13:43;94155.38;;;29.28;36.48
35892;BME280;21993;42.672;23.296;2023-08-07T12:16:10;94150.53;;;29.40;36.22
35892;BME280;21993;42.672;23.296;2023-08-07T12:18:43;94146.22;;;29.39;36.15
35892;BME280;21993;42.672;23.296;2023-08-07T12:21:09;94153.50;;;29.34;36.46
35892;BME280;21993;42.672;23.296;2023-08-07T12:23:36;94151.88;;;29.33;36.23
35892;BME280;21993;42.672;23.296;2023-08-07T12:26:02;94154.81;;;29.21;36.67
35892;BME280;21993;42.672;23.296;2023-08-07T12:28:29;94154.50;;;29.17;37.16
35892;BME280;21993;42.672;23.296;2023-08-07T12:30:54;94152.41;;;29.30;36.83
35892;BME280;21993;42.672;23.296;2023-08-07T12:33:21;94154.00;;;29.26;37.17
35892;BME280;21993;42.672;23.296;2023-08-07T12:35:47;94151.56;;;29.24;36.68
35892;BME280;21993;42.672;23.296;2023-08-07T12:38:12;94159.97;;;29.28;36.59
35892;BME280;21993;42.672;23.296;2023-08-07T12:40:41;94156.72;;;29.21;37.17
35892;BME280;21993;42.672;23.296;2023-08-07T12:43:07;94173.72;;;29.11;37.72
35892;BME280;21993;42.672;23.296;2023-08-07T12:45:33;94165.03;;;29.04;37.55
35892;BME280;21993;42.672;23.296;2023-08-07T12:47:59;94164.28;;;29.19;37.24
35892;BME280;21993;42.672;23.296;2023-08-07T12:50:25;94176.41;;;29.16;37.35